createdAt,value
2018-09-01T00:01:08.667Z,97261.72
2018-09-01T00:03:39.957Z,97267.67
2018-09-01T00:06:09.191Z,97263.41
2018-09-01T00:08:38.375Z,97274.48
2018-09-01T00:11:08.002Z,97274.49
2018-09-01T00:13:37.999Z,97270.23
2018-09-01T00:16:07.507Z,97265.98
2018-09-01T00:18:36.679Z,97264.28
2018-09-01T00:21:05.870Z,97265.14
2018-09-01T00:23:35.137Z,97260.03
2018-09-01T00:26:04.321Z,97252.34
2018-09-01T00:28:33.561Z,97251.08
2018-09-01T00:31:02.769Z,97259.60
2018-09-01T00:33:31.970Z,97256.19
2018-09-01T00:36:01.136Z,97261.71
2018-09-01T00:38:35.574Z,97254.05
2018-09-01T00:41:04.740Z,97257.47
2018-09-01T00:43:33.922Z,97260.86
2018-09-01T00:46:03.091Z,97263.41
2018-09-01T00:48:33.971Z,97257.88
2018-09-01T00:51:03.115Z,97248.95
2018-09-01T00:53:32.259Z,97244.69
2018-09-01T00:56:01.460Z,97248.11
2018-09-01T00:58:30.670Z,97250.63
2018-09-01T01:01:00.160Z,97249.33
2018-09-01T01:03:30.179Z,97248.06
2018-09-01T01:10:59.573Z,97260.80
2018-09-01T01:13:30.645Z,97262.09
2018-09-01T01:16:00.429Z,97261.27
2018-09-01T01:18:30.421Z,97264.23
2018-09-01T01:21:00.372Z,97258.69
2018-09-01T01:23:30.518Z,97259.55
2018-09-01T01:31:07.582Z,97263.39
2018-09-01T01:33:36.833Z,97261.25
2018-09-01T01:36:06.109Z,97259.17
2018-09-01T01:38:35.249Z,97257.45
2018-09-01T01:41:05.006Z,97259.97
2018-09-01T01:43:34.968Z,97259.98
2018-09-01T01:46:05.820Z,97263.80
2018-09-01T01:48:35.308Z,97260.42
2018-09-01T01:51:06.237Z,97262.58
2018-09-01T01:53:35.438Z,97262.58
2018-09-01T01:56:05.527Z,97260.02
2018-09-01T01:58:35.767Z,97257.46
2018-09-01T02:01:05.021Z,97265.13
2018-09-01T02:03:35.065Z,97260.00
2018-09-01T02:53:21.804Z,97257.36
2018-09-01T02:55:51.649Z,97253.96
2018-09-01T02:58:20.907Z,97259.48
2018-09-01T03:00:55.639Z,97259.89
2018-09-01T03:03:24.817Z,97267.55
2018-09-01T03:05:54.032Z,97269.23
2018-09-01T03:08:23.369Z,97274.34
2018-09-01T03:10:52.549Z,97276.89
2018-09-01T03:13:21.681Z,97276.89
2018-09-01T03:15:50.772Z,97277.72
2018-09-01T03:18:19.870Z,97275.16
2018-09-01T03:20:48.996Z,97280.27
2018-09-01T03:23:18.082Z,97270.06
2018-09-01T03:25:47.197Z,97276.00
2018-09-01T03:28:16.246Z,97276.03
2018-09-01T03:30:45.374Z,97278.58
2018-09-01T03:33:14.511Z,97272.65
2018-09-01T03:35:43.626Z,97265.83
2018-09-01T03:38:12.685Z,97272.62
2018-09-01T03:40:41.722Z,97275.58
2018-09-01T03:43:10.823Z,97268.34
2018-09-01T03:45:39.898Z,97274.30
2018-09-01T03:48:09.073Z,97276.85
2018-09-01T03:50:38.167Z,97280.27
2018-09-01T03:53:07.279Z,97278.55
2018-09-01T03:55:36.758Z,97279.41
2018-09-01T03:58:06.726Z,97285.36
2018-09-01T04:00:36.850Z,97284.50
2018-09-01T04:03:06.682Z,97282.37
2018-09-01T04:05:36.894Z,97281.09
2018-09-01T04:08:06.738Z,97283.64
2018-09-01T04:10:36.893Z,97289.60
2018-09-01T04:13:06.758Z,97280.23
2018-09-01T04:15:36.866Z,97274.30
2018-09-01T04:18:06.843Z,97278.95
2018-09-01T04:20:36.700Z,97277.68
2018-09-01T04:23:06.835Z,97275.13
2018-09-01T04:25:36.746Z,97277.69
2018-09-01T04:28:06.899Z,97273.03
2018-09-01T04:30:36.764Z,97273.45
2018-09-01T04:33:07.086Z,97267.52
2018-09-01T04:35:36.923Z,97274.30
2018-09-01T04:38:06.937Z,97267.52
2018-09-01T04:40:36.909Z,97268.34
2018-09-01T04:43:07.386Z,97273.03
2018-09-01T04:45:36.923Z,97282.81
2018-09-01T04:48:07.051Z,97282.81
2018-09-01T04:50:36.983Z,97281.92
2018-09-01T04:53:07.109Z,97274.30
2018-09-01T04:55:37.093Z,97271.31
2018-09-01T04:58:06.908Z,97269.17
2018-09-01T05:00:37.067Z,97271.72
2018-09-01T05:03:06.993Z,97265.80
2018-09-01T05:05:37.105Z,97273.00
2018-09-01T05:08:06.979Z,97267.48
2018-09-01T05:10:37.101Z,97276.78
2018-09-01T05:13:06.975Z,97274.23
2018-09-01T05:15:37.121Z,97275.06
2018-09-01T05:18:07.107Z,97273.37
2018-09-01T05:20:37.142Z,97282.25
2018-09-01T05:23:06.986Z,97276.33
2018-09-01T05:25:36.251Z,97270.82
2018-09-01T05:28:05.415Z,97275.92
2018-09-01T05:30:34.507Z,97292.07
2018-09-01T05:33:03.690Z,97281.88
2018-09-01T05:35:32.807Z,97294.62
2018-09-01T05:38:01.906Z,97286.97
2018-09-01T05:40:31.029Z,97292.89
2018-09-01T05:43:00.127Z,97292.07
2018-09-01T05:45:29.252Z,97296.30
2018-09-01T05:47:58.340Z,97297.58
2018-09-01T05:50:27.494Z,97299.72
2018-09-01T05:52:56.628Z,97303.09
2018-09-01T05:55:25.785Z,97297.13
2018-09-01T05:57:55.120Z,97309.45
2018-09-01T06:00:24.358Z,97310.73
2018-09-01T06:02:54.060Z,97303.08
2018-09-01T06:05:23.177Z,97304.81
2018-09-01T06:07:52.274Z,97307.36
2018-09-01T06:10:21.365Z,97312.46
2018-09-01T06:12:50.458Z,97312.45
2018-09-01T06:15:19.561Z,97306.49
2018-09-01T06:17:48.723Z,97303.95
2018-09-01T06:20:17.805Z,97303.09
2018-09-01T06:22:46.909Z,97294.63
2018-09-01T06:25:16.037Z,97296.34
2018-09-01T06:27:49.558Z,97292.08
2018-09-01T06:30:23.838Z,97304.81
2018-09-01T06:32:52.952Z,97316.69
2018-09-01T06:35:22.049Z,97315.83
2018-09-01T06:37:51.325Z,97323.92
2018-09-01T06:40:20.525Z,97316.69
2018-09-01T06:42:49.627Z,97322.24
2018-09-01T06:45:18.754Z,97317.97
2018-09-01T06:47:47.813Z,97314.14
2018-09-01T06:50:16.942Z,97315.83
2018-09-01T06:52:46.023Z,97317.10
2018-09-01T06:55:15.168Z,97321.34
2018-09-01T06:57:44.223Z,97327.75
2018-09-01T07:00:13.414Z,97331.20
2018-09-01T07:02:42.657Z,97329.48
2018-09-01T07:05:11.780Z,97333.72
2018-09-01T07:07:40.908Z,97330.34
2018-09-01T07:10:10.103Z,97334.58
2018-09-01T07:12:39.259Z,97337.99
2018-09-01T07:15:08.380Z,97342.64
2018-09-01T07:17:37.626Z,97345.63
2018-09-01T07:20:07.645Z,97355.02
2018-09-01T07:22:37.674Z,97351.59
2018-09-01T07:25:07.822Z,97347.31
2018-09-01T07:27:37.724Z,97352.83
2018-09-01T07:30:09.268Z,97354.96
2018-09-01T07:32:38.350Z,97354.52
2018-09-01T07:35:07.887Z,97363.44
2018-09-01T07:37:37.778Z,97365.98
2018-09-01T07:40:07.890Z,97365.16
2018-09-01T07:42:37.795Z,97367.71
2018-09-01T07:45:08.010Z,97367.76
2018-09-01T07:47:37.922Z,97366.03
2018-09-01T07:50:07.915Z,97363.53
2018-09-01T07:52:37.940Z,97363.57
2018-09-01T07:55:07.962Z,97361.84
2018-09-01T07:57:37.974Z,97361.02
2018-09-01T08:00:07.860Z,97362.75
2018-09-01T08:02:37.879Z,97363.65
2018-09-01T08:05:08.133Z,97365.38
2018-09-01T08:07:38.096Z,97374.75
2018-09-01T08:10:08.498Z,97368.78
2018-09-01T08:12:38.010Z,97378.58
2018-09-01T08:15:08.343Z,97376.02
2018-09-01T08:17:38.026Z,97390.02
2018-09-01T08:25:02.232Z,97388.33
2018-09-01T08:27:31.420Z,97387.50
2018-09-01T08:30:02.662Z,97385.78
2018-09-01T08:32:31.898Z,97391.70
2018-09-01T08:35:01.444Z,97384.91
2018-09-01T08:37:32.652Z,97380.67
2018-09-01T08:40:01.859Z,97379.02
2018-09-01T08:42:31.116Z,97381.57
2018-09-01T08:45:00.591Z,97378.61
2018-09-01T08:47:29.766Z,97391.78
2018-09-01T08:49:58.916Z,97392.67
2018-09-01T08:52:28.820Z,97396.50
2018-09-01T08:54:58.414Z,97402.43
2018-09-01T08:57:27.741Z,97399.43
2018-09-01T08:59:58.232Z,97406.26
2018-09-01T09:02:27.538Z,97403.67
2018-09-01T09:04:57.080Z,97407.50
2018-09-01T09:07:26.223Z,97407.09
2018-09-01T09:09:55.871Z,97413.05
2018-09-01T09:12:25.082Z,97412.19
2018-09-01T09:14:54.759Z,97414.73
2018-09-01T09:17:27.688Z,97419.84
2018-09-01T09:19:57.312Z,97417.30
2018-09-01T09:22:26.493Z,97418.98
2018-09-01T09:24:56.053Z,97416.43
2018-09-01T09:27:25.294Z,97420.70
2018-09-01T09:29:54.789Z,97425.80
2018-09-01T09:32:24.121Z,97430.45
2018-09-01T09:34:58.190Z,97431.73
2018-09-01T09:37:27.434Z,97431.73
2018-09-01T09:39:57.383Z,97432.14
2018-09-01T09:42:26.704Z,97420.62
2018-09-01T09:44:56.437Z,97423.22
2018-09-01T09:47:25.698Z,97420.67
2018-09-01T09:49:55.286Z,97415.56
2018-09-01T09:52:24.740Z,97405.39
2018-09-01T09:54:54.412Z,97407.95
2018-09-01T09:57:23.716Z,97407.09
2018-09-01T09:59:53.756Z,97409.67
2018-09-01T10:02:23.023Z,97408.87
2018-09-01T10:04:53.042Z,97409.76
2018-09-01T10:07:22.377Z,97405.52
2018-09-01T10:09:52.076Z,97404.66
2018-09-01T10:12:23.172Z,97407.20
2018-09-01T10:14:52.845Z,97408.90
2018-09-01T10:17:22.009Z,97416.55
2018-09-01T10:19:51.650Z,97417.42
2018-09-01T10:22:21.082Z,97418.70
2018-09-01T10:24:50.742Z,97418.70
2018-09-01T10:27:19.959Z,97424.21
2018-09-01T10:29:49.645Z,97422.11
2018-09-01T10:32:18.873Z,97424.24
2018-09-01T10:34:48.434Z,97430.17
2018-09-01T10:37:17.594Z,97437.84
2018-09-01T10:39:47.187Z,97436.97
2018-09-01T10:42:19.136Z,97441.22
2018-09-01T10:44:48.666Z,97442.91
2018-09-01T10:47:17.987Z,97450.56
2018-09-01T10:49:47.640Z,97456.46
2018-09-01T10:52:18.374Z,97453.46
2018-09-01T10:54:48.057Z,97453.46
2018-09-01T10:57:18.021Z,97453.05
2018-09-01T10:59:47.582Z,97452.63
2018-09-01T11:02:16.801Z,97454.73
2018-09-01T11:04:46.253Z,97459.84
2018-09-01T11:07:15.612Z,97464.11
2018-09-01T11:09:45.271Z,97465.36
2018-09-01T11:12:16.266Z,97468.32
2018-09-01T11:14:45.801Z,97464.91
2018-09-01T11:17:15.029Z,97469.18
2018-09-01T11:19:45.507Z,97467.94
2018-09-01T11:22:14.949Z,97471.36
2018-09-01T11:24:44.549Z,97472.64
2018-09-01T11:27:13.791Z,97468.36
2018-09-01T11:29:43.489Z,97470.91
2018-09-01T11:32:16.280Z,97470.05
2018-09-01T11:34:45.899Z,97468.36
2018-09-01T11:37:15.262Z,97477.70
2018-09-01T11:39:45.492Z,97475.16
2018-09-01T11:42:14.729Z,97472.64
2018-09-01T11:44:44.282Z,97470.05
2018-09-01T11:47:13.466Z,97470.45
2018-09-01T11:49:43.783Z,97473.01
2018-09-01T11:52:13.003Z,97471.32
2018-09-01T11:54:42.596Z,97467.53
2018-09-01T11:57:11.972Z,97472.67
2018-09-01T11:59:41.288Z,97468.39
2018-09-01T12:02:11.346Z,97474.77
2018-09-01T12:04:40.497Z,97470.09
2018-09-01T12:07:09.780Z,97464.16
2018-09-01T12:09:40.732Z,97465.88
2018-09-01T12:12:09.993Z,97471.84
2018-09-01T12:14:39.634Z,97471.47
2018-09-01T12:17:09.597Z,97467.60
2018-09-01T12:19:39.629Z,97475.67
2018-09-01T12:22:09.749Z,97474.40
2018-09-01T12:24:39.810Z,97469.33
2018-09-01T12:27:11.402Z,97476.57
2018-09-01T12:29:40.657Z,97471.88
2018-09-01T12:32:11.844Z,97469.30
2018-09-01T12:34:41.068Z,97467.19
2018-09-01T12:37:10.300Z,97473.13
2018-09-01T12:39:41.853Z,97470.16
2018-09-01T12:42:12.257Z,97476.95
2018-09-01T12:44:41.405Z,97478.67
2018-09-01T12:47:10.622Z,97477.40
2018-09-01T12:49:39.946Z,97481.98
2018-09-01T12:52:10.003Z,97484.53
2018-09-01T12:54:39.841Z,97493.09
2018-09-01T12:57:12.461Z,97492.23
2018-09-01T12:59:41.809Z,97490.91
2018-09-01T13:02:13.076Z,97487.50
2018-09-01T13:04:42.317Z,97490.50
2018-09-01T13:07:11.893Z,97487.08
2018-09-01T13:09:41.885Z,97483.25
2018-09-01T13:12:11.188Z,97487.08
2018-09-01T13:14:40.741Z,97479.84
2018-09-01T13:17:10.728Z,97472.59
2018-09-01T13:19:40.183Z,97468.32
2018-09-01T13:22:10.018Z,97470.05
2018-09-01T13:24:40.096Z,97471.28
2018-09-01T13:27:10.138Z,97474.28
2018-09-01T13:29:41.241Z,97473.46
2018-09-01T13:32:11.270Z,97477.28
2018-09-01T13:34:40.524Z,97481.07
2018-09-01T13:37:10.129Z,97481.08
2018-09-01T13:39:40.195Z,97481.94
2018-09-01T13:42:10.187Z,97492.15
2018-09-01T13:44:40.216Z,97496.42
2018-09-01T13:47:10.208Z,97493.01
2018-09-01T13:49:40.208Z,97493.00
2018-09-01T13:57:09.446Z,97493.83
2018-09-01T13:59:38.631Z,97496.38
2018-09-01T14:02:08.128Z,97490.83
2018-09-01T14:04:37.461Z,97490.82
2018-09-01T14:07:07.051Z,97497.23
2018-09-01T14:09:36.322Z,97498.06
2018-09-01T14:12:05.710Z,97500.16
2018-09-01T14:14:35.148Z,97503.16
2018-09-01T14:17:04.223Z,97507.45
2018-09-01T14:19:33.450Z,97500.62
2018-09-01T14:22:02.694Z,97502.71
2018-09-01T14:24:31.864Z,97506.54
2018-09-01T14:27:01.074Z,97501.03
2018-09-01T14:29:30.295Z,97496.78
2018-09-01T14:31:59.502Z,97492.09
2018-09-01T14:34:28.734Z,97490.41
2018-09-01T14:36:58.084Z,97481.44
2018-09-01T14:39:27.245Z,97492.50
2018-09-01T14:41:57.162Z,97489.45
2018-09-01T14:44:26.340Z,97495.42
2018-09-01T14:46:55.948Z,97496.78
2018-09-01T14:49:25.147Z,97492.14
2018-09-01T14:51:54.677Z,97495.97
2018-09-01T14:54:23.904Z,97496.78
2018-09-01T14:56:53.584Z,97501.37
2018-09-01T14:59:22.835Z,97492.44
2018-09-01T15:01:52.368Z,97495.81
2018-09-01T15:04:21.647Z,97492.80
2018-09-01T15:06:51.266Z,97494.02
2018-09-01T15:09:20.485Z,97495.36
2018-09-01T15:11:50.189Z,97493.67
2018-09-01T15:14:19.543Z,97493.67
2018-09-01T15:16:49.120Z,97491.94
2018-09-01T15:19:18.396Z,97493.66
2018-09-01T15:21:47.957Z,97489.32
2018-09-01T15:24:17.208Z,97488.91
2018-09-01T15:26:46.915Z,97487.64
2018-09-01T15:29:16.168Z,97493.60
2018-09-01T15:31:45.684Z,97500.39
2018-09-01T15:34:14.917Z,97491.93
2018-09-01T15:36:44.458Z,97487.23
2018-09-01T15:39:13.665Z,97477.45
2018-09-01T15:41:42.911Z,97480.00
2018-09-01T15:44:13.228Z,97488.50
2018-09-01T15:46:42.500Z,97490.19
2018-09-01T15:49:11.711Z,97491.05
2018-09-01T15:51:42.704Z,97487.58
2018-09-01T15:54:11.909Z,97495.64
2018-09-01T15:56:42.643Z,97500.33
2018-09-01T15:59:12.036Z,97497.77
2018-09-01T16:01:41.523Z,97497.77
2018-09-01T16:09:20.991Z,97504.12
2018-09-01T16:11:50.584Z,97502.41
2018-09-01T16:14:19.808Z,97499.45
2018-09-01T16:16:49.449Z,97498.63
2018-09-01T16:19:18.696Z,97508.83
2018-09-01T16:21:48.027Z,97501.58
2018-09-01T16:24:17.329Z,97503.67
2018-09-01T16:26:46.909Z,97509.19
2018-09-01T16:29:18.697Z,97510.50
2018-09-01T16:31:48.369Z,97507.51
2018-09-01T16:34:17.692Z,97510.11
2018-09-01T16:36:47.314Z,97510.11
2018-09-01T16:39:17.522Z,97508.83
2018-09-01T16:41:48.125Z,97507.15
2018-09-01T16:44:18.316Z,97504.14
2018-09-01T16:46:48.966Z,97496.89
2018-09-01T16:49:19.274Z,97498.58
2018-09-01T16:51:50.014Z,97496.88
2018-09-01T16:54:19.373Z,97494.33
2018-09-01T16:56:49.749Z,97490.06
2018-09-01T16:59:20.943Z,97489.23
2018-09-01T17:01:50.581Z,97492.61
2018-09-01T17:04:22.826Z,97498.98
2018-09-01T17:06:55.960Z,97495.20
2018-09-01T17:09:25.190Z,97492.66
2018-09-01T17:11:57.240Z,97490.94
2018-09-01T17:14:27.285Z,97490.11
2018-09-01T17:16:57.053Z,97500.31
2018-09-01T17:19:26.328Z,97494.73
2018-09-01T17:21:57.594Z,97503.61
2018-09-01T17:24:27.270Z,97502.78
2018-09-01T17:26:56.860Z,97505.34
2018-09-01T17:29:26.123Z,97506.63
2018-09-01T17:31:55.733Z,97507.03
2018-09-01T17:34:25.788Z,97507.89
2018-09-01T17:36:55.118Z,97509.16
2018-09-01T17:39:24.415Z,97511.27
2018-09-01T17:41:54.030Z,97512.12
2018-09-01T17:44:23.325Z,97507.44
2018-09-01T17:46:52.578Z,97501.94
2018-09-01T17:49:21.948Z,97503.66
2018-09-01T17:51:53.313Z,97505.75
2018-09-01T17:54:23.318Z,97504.88
2018-09-01T17:56:54.907Z,97503.58
2018-09-01T17:59:24.192Z,97509.51
2018-09-01T18:01:55.686Z,97506.55
2018-09-01T18:04:25.055Z,97502.70
2018-09-01T18:06:54.619Z,97504.80
2018-09-01T18:09:23.946Z,97503.53
2018-09-01T18:11:53.545Z,97514.98
2018-09-01T18:14:22.998Z,97520.55
2018-09-01T18:16:52.557Z,97530.73
2018-09-01T18:19:22.076Z,97525.59
2018-09-01T18:21:52.064Z,97521.36
2018-09-01T18:24:21.374Z,97515.40
2018-09-01T18:26:50.664Z,97523.05
2018-09-01T18:29:19.952Z,97527.31
2018-09-01T18:31:49.581Z,97539.20
2018-09-01T18:34:19.696Z,97537.06
2018-09-01T18:36:49.162Z,97535.83
2018-09-01T18:39:18.588Z,97535.78
2018-09-01T18:41:48.357Z,97540.06
2018-09-01T18:44:17.713Z,97541.75
2018-09-01T18:46:47.817Z,97543.48
2018-09-01T18:49:17.263Z,97539.20
2018-09-01T18:51:47.168Z,97543.03
2018-09-01T18:54:16.642Z,97551.14
2018-09-01T18:56:46.305Z,97550.74
2018-09-01T18:59:15.736Z,97552.88
2018-09-01T19:01:45.446Z,97557.98
2018-09-01T19:04:17.570Z,97562.20
2018-09-01T19:06:47.230Z,97563.48
2018-09-01T19:09:16.600Z,97563.03
2018-09-01T19:11:46.781Z,97567.28
2018-09-01T19:14:16.623Z,97572.80
2018-09-01T19:16:46.420Z,97579.98
2018-09-01T19:19:16.166Z,97575.75
2018-09-01T19:21:48.244Z,97579.98
2018-09-01T19:24:17.837Z,97583.39
2018-09-01T19:26:47.765Z,97583.39
2018-09-01T19:29:19.469Z,97576.61
2018-09-01T19:31:49.991Z,97573.66
2018-09-01T19:34:19.729Z,97569.78
2018-09-01T19:36:49.534Z,97563.38
2018-09-01T19:39:19.366Z,97565.48
2018-09-01T19:41:48.871Z,97575.27
2018-09-01T19:44:19.244Z,97572.33
2018-09-01T19:46:49.323Z,97568.96
2018-09-01T19:49:19.011Z,97568.95
2018-09-01T19:51:49.181Z,97567.23
2018-09-01T19:54:18.848Z,97568.96
2018-09-01T19:56:48.892Z,97563.03
2018-09-01T19:59:20.409Z,97562.22
2018-09-01T20:01:52.212Z,97560.13
2018-09-01T20:04:25.550Z,97558.00
2018-09-01T20:06:55.308Z,97554.58
2018-09-01T20:09:24.839Z,97548.61
2018-09-01T20:11:55.312Z,97546.06
2018-09-01T20:14:25.101Z,97541.81
2018-09-01T20:16:56.772Z,97550.28
2018-09-01T20:19:26.439Z,97546.05
2018-09-01T20:21:56.561Z,97547.73
2018-09-01T20:24:26.075Z,97553.70
2018-09-01T20:26:56.018Z,97543.91
2018-09-01T20:29:27.419Z,97545.63
2018-09-01T20:31:57.171Z,97549.39
2018-09-01T20:34:26.667Z,97548.92
2018-09-01T20:36:56.445Z,97549.38
2018-09-01T20:39:25.938Z,97561.26
2018-09-01T20:41:55.584Z,97557.84
2018-09-01T20:44:24.917Z,97555.30
2018-09-01T20:46:54.574Z,97551.08
2018-09-01T20:49:23.976Z,97549.38
2018-09-01T20:51:53.648Z,97547.70
2018-09-01T20:54:23.072Z,97552.80
2018-09-01T20:56:53.587Z,97556.22
2018-09-01T20:59:22.893Z,97551.54
2018-09-01T21:01:52.576Z,97551.12
2018-09-01T21:04:21.869Z,97551.12
2018-09-01T21:06:51.575Z,97557.09
2018-09-01T21:09:20.781Z,97555.37
2018-09-01T21:11:50.404Z,97558.78
2018-09-01T21:14:19.738Z,97553.69
2018-09-01T21:16:49.459Z,97555.37
2018-09-01T21:19:18.717Z,97551.99
2018-09-01T21:21:48.784Z,97549.39
2018-09-01T21:24:18.118Z,97550.72
2018-09-01T21:26:47.751Z,97547.71
2018-09-01T21:29:16.992Z,97550.67
2018-09-01T21:31:46.561Z,97550.67
2018-09-01T21:34:15.846Z,97542.59
2018-09-01T21:36:46.947Z,97542.59
2018-09-01T21:39:16.990Z,97541.73
2018-09-01T21:41:48.335Z,97535.78
2018-09-01T21:44:19.231Z,97530.67
2018-09-01T21:46:48.776Z,97528.93
2018-09-01T21:49:18.001Z,97528.06
2018-09-01T21:51:47.601Z,97522.53
2018-09-01T21:54:16.802Z,97525.49
2018-09-01T21:56:46.451Z,97524.63
2018-09-01T21:59:15.667Z,97533.59
2018-09-01T22:01:49.342Z,97528.02
2018-09-01T22:04:18.575Z,97524.16
2018-09-01T22:06:48.325Z,97523.72
2018-09-01T22:09:17.590Z,97520.31
2018-09-01T22:11:48.651Z,97522.06
2018-09-01T22:14:17.915Z,97524.59
2018-09-01T22:16:47.480Z,97522.05
2018-09-01T22:19:16.723Z,97522.88
2018-09-01T22:21:46.269Z,97519.93
2018-09-01T22:24:17.418Z,97520.80
2018-09-01T22:26:47.065Z,97523.75
2018-09-01T22:29:16.999Z,97526.28
2018-09-01T22:31:46.667Z,97519.51
2018-09-01T22:34:15.948Z,97514.02
2018-09-01T22:36:46.192Z,97513.60
2018-09-01T22:39:15.424Z,97512.73
2018-09-01T22:41:44.660Z,97513.56
2018-09-01T22:44:15.740Z,97508.47
2018-09-01T22:46:45.763Z,97517.03
2018-09-01T22:49:15.269Z,97516.17
2018-09-01T22:51:45.245Z,97518.73
2018-09-01T22:54:15.161Z,97521.28
2018-09-01T22:56:48.833Z,97520.02
2018-09-01T22:59:18.127Z,97518.73
2018-09-01T23:01:49.376Z,97520.06
2018-09-01T23:04:18.605Z,97518.79
2018-09-01T23:06:49.764Z,97517.94
2018-09-01T23:09:18.975Z,97506.88
2018-09-01T23:11:49.556Z,97505.19
2018-09-01T23:14:18.773Z,97506.47
2018-09-01T23:16:48.475Z,97506.93
2018-09-01T23:19:17.829Z,97506.06
2018-09-01T23:21:49.099Z,97500.97
2018-09-01T23:24:18.319Z,97509.43
2018-09-01T23:26:47.883Z,97507.74
2018-09-01T23:29:17.148Z,97507.75
2018-09-01T23:31:46.605Z,97501.85
2018-09-01T23:34:15.812Z,97502.72
2018-09-01T23:36:45.121Z,97504.86
2018-09-01T23:39:15.141Z,97508.68
2018-09-01T23:41:45.215Z,97502.70
